Time;durP1;ratioP1;P1;durP2;ratioP2;P2;SDS_P1;SDS_P2;PMS_P1;PMS_P2;Temp;Humidity;BMP_temperature;BMP_pressure;BME280_temperature;BME280_humidity;BME280_pressure;Samples;Min_cycle;Max_cycle;Signal;HPM_P1;HPM_P2
2024/04/04 00:01:30;;;;;;;1.80;1.30;;;;;;;11.40;100.00;154286.72;5029805;28;20257;-91
2024/04/04 00:03:56;;;;;;;2.07;1.47;;;;;;;11.40;100.00;154288.03;5012778;28;20926;-92
2024/04/04 00:06:23;;;;;;;3.43;1.27;;;;;;;11.40;100.00;154286.72;5029424;28;20203;-92
2024/04/04 00:08:51;;;;;;;2.40;1.30;;;;;;;11.41;100.00;154290.59;5025511;28;20463;-93
2024/04/04 00:11:17;;;;;;;2.30;1.33;;;;;;;11.42;100.00;154293.19;5030167;28;20483;-93
2024/04/04 00:13:44;;;;;;;1.50;1.13;;;;;;;11.41;100.00;154289.34;5029824;28;20440;-92
2024/04/04 00:16:09;;;;;;;3.67;1.30;;;;;;;11.43;100.00;154294.50;5021604;28;20436;-92
2024/04/04 00:18:36;;;;;;;1.97;1.33;;;;;;;11.41;100.00;154289.34;5028803;28;20470;-92
2024/04/04 00:21:02;;;;;;;2.07;1.10;;;;;;;11.41;100.00;154289.34;5025184;28;20210;-92
2024/04/04 00:23:29;;;;;;;4.50;1.47;;;;;;;11.41;100.00;154289.34;5028375;28;20542;-91
2024/04/04 00:25:55;;;;;;;2.10;1.30;;;;;;;11.42;100.00;154291.91;5024953;28;20475;-91
2024/04/04 00:28:23;;;;;;;2.80;1.20;;;;;;;11.43;100.00;154295.81;5012184;28;20456;-88
2024/04/04 00:30:49;;;;;;;3.57;1.57;;;;;;;11.43;100.00;154295.81;5008174;28;20978;-89
2024/04/04 00:33:16;;;;;;;1.30;1.03;;;;;;;11.44;100.00;154297.06;5020952;28;20463;-89
2024/04/04 00:35:41;;;;;;;1.57;1.23;;;;;;;11.45;100.00;154299.69;5013153;28;20205;-88
2024/04/04 00:38:08;;;;;;;3.17;1.23;;;;;;;11.42;100.00;154293.19;5018357;28;20471;-92
2024/04/04 00:40:36;;;;;;;1.73;1.10;;;;;;;11.41;100.00;154289.34;5021773;28;20222;-91
2024/04/04 00:43:05;;;;;;;1.80;1.20;;;;;;;11.39;100.00;154284.13;5028873;28;20448;-91
2024/04/04 00:45:31;;;;;;;1.80;1.00;;;;;;;11.36;100.00;154276.34;5029893;28;20451;-90
2024/04/04 00:47:59;;;;;;;2.53;1.10;;;;;;;11.33;100.00;154269.84;5030347;28;20438;-92
2024/04/04 00:50:25;;;;;;;1.87;0.97;;;;;;;11.31;100.00;154264.69;5033702;28;20930;-91
2024/04/04 00:52:55;;;;;;;1.97;1.10;;;;;;;11.28;100.00;154256.91;5028456;28;20520;-91
2024/04/04 00:55:21;;;;;;;2.63;1.03;;;;;;;11.24;100.00;154246.56;5030963;28;20463;-92
2024/04/04 00:57:48;;;;;;;2.47;1.27;;;;;;;11.21;100.00;154237.47;5012946;28;20455;-91
2024/04/04 01:00:15;;;;;;;1.30;1.00;;;;;;;11.21;100.00;154238.78;5025106;28;20225;-91
2024/04/04 01:02:41;;;;;;;4.37;1.00;;;;;;;11.19;100.00;154233.63;5027081;28;20490;-91
2024/04/04 01:05:07;;;;;;;2.77;1.40;;;;;;;11.16;100.00;154225.84;5018416;28;20559;-92
2024/04/04 01:07:34;;;;;;;1.10;0.80;;;;;;;11.14;100.00;154219.38;5021799;28;20547;-91
2024/04/04 01:10:03;;;;;;;2.33;1.00;;;;;;;11.10;100.00;154210.28;5028573;28;20302;-90
2024/04/04 01:12:30;;;;;;;1.20;0.90;;;;;;;11.08;100.00;154203.81;5028901;28;20446;-91
2024/04/04 01:14:55;;;;;;;3.60;1.47;;;;;;;11.07;100.00;154201.25;5022535;28;20452;-92
2024/04/04 01:17:24;;;;;;;1.43;1.10;;;;;;;11.05;100.00;154196.03;5021189;28;20461;-94
2024/04/04 01:19:50;;;;;;;2.70;1.10;;;;;;;11.02;100.00;154189.56;5018061;28;20218;-91
2024/04/04 01:22:16;;;;;;;1.80;1.00;;;;;;;11.05;100.00;154196.03;5019512;28;20464;-91
2024/04/04 01:24:43;;;;;;;2.07;1.00;;;;;;;11.05;100.00;154196.03;5029107;28;20897;-91
2024/04/04 01:27:10;;;;;;;2.70;1.30;;;;;;;11.04;100.00;154194.72;5019719;28;20845;-91
2024/04/04 01:29:35;;;;;;;2.37;1.13;;;;;;;11.04;100.00;154193.47;5027753;28;20491;-92
2024/04/04 01:32:02;;;;;;;1.17;0.90;;;;;;;11.02;100.00;154190.84;5028272;28;20948;-92
2024/04/04 01:34:27;;;;;;;1.47;1.13;;;;;;;11.02;100.00;154189.56;5040046;28;20210;-91
2024/04/04 01:36:54;;;;;;;1.40;1.30;;;;;;;11.03;100.00;154192.16;5034407;28;20675;-90
2024/04/04 01:39:19;;;;;;;2.60;1.00;;;;;;;11.05;100.00;154196.03;5034652;28;20211;-91
2024/04/04 01:41:47;;;;;;;1.70;1.00;;;;;;;11.07;100.00;154202.50;5024536;28;20451;-90
2024/04/04 01:44:13;;;;;;;2.33;0.80;;;;;;;11.07;100.00;154201.25;5020606;28;20210;-92
2024/04/04 01:46:40;;;;;;;2.20;0.90;;;;;;;11.08;100.00;154205.13;5023460;28;20459;-91
2024/04/04 01:49:06;;;;;;;2.97;1.00;;;;;;;11.06;100.00;154198.63;5028031;28;20256;-91
2024/04/04 01:51:32;;;;;;;1.40;1.03;;;;;;;11.05;100.00;154196.03;5023283;28;20538;-92
2024/04/04 01:53:59;;;;;;;1.90;1.00;;;;;;;11.07;100.00;154202.50;5016264;28;20206;-92
2024/04/04 01:56:26;;;;;;;1.70;1.10;;;;;;;11.07;100.00;154202.50;5015456;28;20494;-90
2024/04/04 01:58:53;;;;;;;1.27;0.80;;;;;;;11.07;100.00;154202.50;5013960;28;20432;-92
2024/04/04 02:01:19;;;;;;;1.20;0.90;;;;;;;11.08;100.00;154203.81;5038690;28;20490;-92
2024/04/04 02:03:45;;;;;;;5.43;1.10;;;;;;;11.08;100.00;154203.81;5032099;28;20469;-91
2024/04/04 02:06:12;;;;;;;1.97;1.30;;;;;;;11.08;100.00;154205.13;5031725;28;20455;-91
2024/04/04 02:08:37;;;;;;;1.37;1.03;;;;;;;11.11;100.00;154211.59;5014954;28;20285;-91
2024/04/04 02:11:04;;;;;;;3.33;1.60;;;;;;;11.11;100.00;154211.59;5016686;28;21286;-92
2024/04/04 02:13:30;;;;;;;1.60;1.00;;;;;;;11.13;100.00;154218.06;5031854;28;20726;-92
2024/04/04 02:15:58;;;;;;;2.30;1.10;;;;;;;11.14;100.00;154220.66;5032297;28;20534;-91
2024/04/04 02:18:24;;;;;;;2.20;1.40;;;;;;;11.17;100.00;154228.44;5031237;28;20206;-92
2024/04/04 02:20:50;;;;;;;2.20;1.07;;;;;;;11.17;100.00;154228.44;5036602;28;20793;-92
2024/04/04 02:23:16;;;;;;;1.97;1.00;;;;;;;11.17;100.00;154228.44;5032009;28;20229;-93
2024/04/04 02:25:43;;;;;;;1.97;1.17;;;;;;;11.20;100.00;154234.94;5032560;28;20455;-92
2024/04/04 02:28:09;;;;;;;1.40;1.03;;;;;;;11.22;100.00;154240.09;5037299;28;20221;-92
2024/04/04 02:30:36;;;;;;;1.43;1.30;;;;;;;11.22;100.00;154240.09;5031603;28;20467;-92
2024/04/04 02:33:03;;;;;;;1.73;1.20;;;;;;;11.21;100.00;154238.78;5017271;28;20424;-90
2024/04/04 02:35:30;;;;;;;4.50;1.00;;;;;;;11.20;100.00;154234.94;5031780;28;20466;-93
2024/04/04 02:37:55;;;;;;;2.07;1.40;;;;;;;11.19;100.00;154232.31;5025138;28;20994;-92
2024/04/04 02:40:22;;;;;;;2.50;1.30;;;;;;;11.19;100.00;154233.63;5023499;28;20447;-91
2024/04/04 02:42:48;;;;;;;2.67;1.10;;;;;;;11.19;100.00;154232.31;5028452;28;20280;-91
2024/04/04 02:45:15;;;;;;;3.53;1.20;;;;;;;11.18;100.00;154229.72;5026840;28;20503;-93
2024/04/04 02:47:40;;;;;;;1.27;0.90;;;;;;;11.16;100.00;154224.53;5032176;28;20431;-92
2024/04/04 02:50:08;;;;;;;1.50;0.90;;;;;;;11.16;100.00;154225.84;5025372;28;20550;-91
2024/04/04 02:52:34;;;;;;;1.57;1.03;;;;;;;11.17;100.00;154227.16;5027936;28;20257;-91
2024/04/04 02:55:00;;;;;;;3.17;1.00;;;;;;;11.17;100.00;154227.16;5027631;28;20463;-92
2024/04/04 02:57:26;;;;;;;1.60;0.97;;;;;;;11.18;100.00;154229.72;5029922;28;20214;-91
2024/04/04 02:59:53;;;;;;;1.60;1.03;;;;;;;11.17;100.00;154227.16;5031059;28;20462;-91
2024/04/04 03:02:18;;;;;;;2.50;1.20;;;;;;;11.17;100.00;154227.16;5029708;28;20284;-90
2024/04/04 03:04:45;;;;;;;2.87;0.90;;;;;;;11.18;100.00;154231.00;5030963;28;20451;-92
2024/04/04 03:07:12;;;;;;;3.17;0.90;;;;;;;11.20;100.00;154234.94;5031469;28;20207;-92
2024/04/04 03:09:38;;;;;;;1.07;0.73;;;;;;;11.20;100.00;154234.94;5031404;28;20443;-92
2024/04/04 03:12:05;;;;;;;3.40;1.07;;;;;;;11.20;100.00;154236.19;5021362;28;20501;-92
2024/04/04 03:14:31;;;;;;;1.30;0.80;;;;;;;11.22;100.00;154240.09;5036382;28;20531;-92
2024/04/04 03:16:57;;;;;;;1.30;0.87;;;;;;;11.22;100.00;154241.41;5020833;28;20440;-87
2024/04/04 03:19:23;;;;;;;1.50;0.80;;;;;;;11.23;100.00;154243.97;5017816;28;20460;-90
2024/04/04 03:21:49;;;;;;;1.37;1.03;;;;;;;11.23;100.00;154242.66;5029750;28;20288;-91
2024/04/04 03:24:16;;;;;;;1.10;0.90;;;;;;;11.22;100.00;154241.41;5032076;28;20471;-92
2024/04/04 03:26:42;;;;;;;2.50;0.90;;;;;;;11.21;100.00;154237.47;5030800;28;20264;-92
2024/04/04 03:29:08;;;;;;;2.10;1.07;;;;;;;11.19;100.00;154232.31;5018567;28;20443;-92
2024/04/04 03:31:34;;;;;;;4.17;1.23;;;;;;;11.17;100.00;154227.16;5014080;28;20313;-91
2024/04/04 03:34:01;;;;;;;2.07;0.77;;;;;;;11.16;100.00;154224.53;5029409;28;20527;-92
2024/04/04 03:36:26;;;;;;;2.93;1.13;;;;;;;11.16;100.00;154224.53;5030498;28;20199;-91
2024/04/04 03:39:40;;;;;;;1.57;0.90;;;;;;;11.17;100.00;154227.16;5031223;28;20435;-92
2024/04/04 03:42:07;;;;;;;1.20;0.70;;;;;;;11.19;100.00;154233.63;5022232;28;20252;-91
2024/04/04 03:44:33;;;;;;;2.07;1.10;;;;;;;11.17;100.00;154227.16;5013639;28;20959;-90
2024/04/04 03:46:59;;;;;;;1.63;0.83;;;;;;;11.15;100.00;154221.94;5030972;28;20444;-91
2024/04/04 03:49:26;;;;;;;1.50;0.97;;;;;;;11.13;100.00;154218.06;5027260;28;21049;-91
2024/04/04 03:51:51;;;;;;;1.73;1.00;;;;;;;11.11;100.00;154211.59;5030316;28;20264;-90
2024/04/04 03:54:18;;;;;;;2.53;1.53;;;;;;;11.10;100.00;154208.97;5029640;28;20923;-93
2024/04/04 03:56:44;;;;;;;2.83;1.40;;;;;;;11.10;100.00;154210.28;5030399;28;20215;-92
2024/04/04 03:59:12;;;;;;;1.80;0.90;;;;;;;11.06;100.00;154199.94;5043463;28;20447;-91
2024/04/04 04:01:38;;;;;;;1.83;1.30;;;;;;;11.06;100.00;154199.94;5049696;28;20206;-91
2024/04/04 04:04:08;;;;;;;2.60;1.00;;;;;;;11.04;100.00;154193.47;5051064;28;20477;-91
2024/04/04 04:06:36;;;;;;;1.53;1.17;;;;;;;11.02;100.00;154190.84;5033941;28;20550;-91
2024/04/04 04:09:02;;;;;;;3.73;1.30;;;;;;;10.99;100.00;154181.78;5013632;28;20447;-91
2024/04/04 04:11:29;;;;;;;2.10;1.37;;;;;;;10.99;100.00;154181.78;5031913;28;20795;-92
2024/04/04 04:13:54;;;;;;;1.80;1.27;;;;;;;10.97;100.00;154176.59;5029976;28;20253;-92
2024/04/04 04:16:22;;;;;;;1.73;1.00;;;;;;;10.94;100.00;154170.13;5028694;28;20463;-92
2024/04/04 04:18:49;;;;;;;1.80;0.90;;;;;;;10.95;100.00;154171.44;5031743;28;20308;-92
2024/04/04 04:21:20;;;;;;;2.80;1.33;;;;;;;10.93;100.00;154167.53;5030545;28;20939;-92
2024/04/04 04:23:46;;;;;;;2.37;1.30;;;;;;;10.91;100.00;154162.34;5031470;28;20506;-92
2024/04/04 04:26:13;;;;;;;4.70;1.60;;;;;;;10.90;100.00;154159.78;5029937;28;21140;-93
2024/04/04 04:28:39;;;;;;;1.30;0.93;;;;;;;10.89;100.00;154157.19;5031901;28;20462;-92
2024/04/04 04:31:21;;;;;;;4.00;1.50;;;;;;;10.87;100.00;154152.03;5031654;28;20967;-93
2024/04/04 04:33:48;;;;;;;1.47;1.07;;;;;;;10.85;100.00;154146.84;5030196;28;20821;-92
2024/04/04 04:36:14;;;;;;;1.70;1.17;;;;;;;10.84;100.00;154142.94;5031421;28;20447;-92
2024/04/04 04:38:40;;;;;;;2.43;1.57;;;;;;;10.82;100.00;154139.06;5031550;28;20507;-93
2024/04/04 04:41:06;;;;;;;1.83;1.07;;;;;;;10.83;100.00;154140.31;5030175;28;20506;-92
2024/04/04 04:43:32;;;;;;;1.37;0.97;;;;;;;10.79;100.00;154131.28;5031624;28;20226;-92
2024/04/04 04:45:58;;;;;;;1.70;1.10;;;;;;;10.78;100.00;154127.38;5022245;28;20843;-92
2024/04/04 04:48:24;;;;;;;1.40;0.93;;;;;;;10.76;100.00;154122.22;5024278;28;20214;-92
2024/04/04 04:50:52;;;;;;;1.57;1.13;;;;;;;10.75;100.00;154119.66;5031484;28;20824;-92
2024/04/04 04:53:17;;;;;;;3.23;1.50;;;;;;;10.74;100.00;154117.03;5032051;28;20264;-93
2024/04/04 04:55:47;;;;;;;1.50;1.00;;;;;;;10.75;100.00;154120.91;5042090;28;20456;-89
2024/04/04 04:58:13;;;;;;;2.17;1.37;;;;;;;10.75;100.00;154119.66;5036850;28;20210;-92
2024/04/04 05:00:39;;;;;;;2.60;1.30;;;;;;;10.75;100.00;154120.91;5031610;28;20517;-91
2024/04/04 05:03:05;;;;;;;1.60;1.07;;;;;;;10.77;100.00;154126.13;5031246;28;20303;-92
2024/04/04 05:05:32;;;;;;;1.67;1.10;;;;;;;10.78;100.00;154128.69;5012707;28;20487;-92
2024/04/04 05:07:59;;;;;;;1.77;1.20;;;;;;;10.80;100.00;154133.84;5012903;28;20620;-91
2024/04/04 05:10:26;;;;;;;1.73;1.13;;;;;;;10.80;100.00;154133.84;5027270;28;20455;-93
2024/04/04 05:12:52;;;;;;;3.43;1.40;;;;;;;10.81;100.00;154135.16;5012890;28;20456;-92
2024/04/04 05:15:18;;;;;;;1.10;0.60;;;;;;;10.80;100.00;154132.59;5004512;28;20473;-93
2024/04/04 05:17:44;;;;;;;3.60;1.30;;;;;;;10.78;100.00;154128.69;5021685;28;20210;-93
2024/04/04 05:20:13;;;;;;;1.40;0.83;;;;;;;10.78;100.00;154128.69;5029672;28;20459;-91
2024/04/04 05:22:38;;;;;;;2.57;1.00;;;;;;;10.75;100.00;154120.91;5010801;28;20211;-91
2024/04/04 05:25:07;;;;;;;3.73;1.30;;;;;;;10.75;100.00;154119.66;5029220;28;20793;-91
2024/04/04 05:27:32;;;;;;;1.30;1.00;;;;;;;10.78;100.00;154127.38;5028392;28;20253;-92
2024/04/04 05:30:05;;;;;;;1.90;1.00;;;;;;;10.82;100.00;154139.06;5030748;28;21002;-92
2024/04/04 05:32:31;;;;;;;1.30;0.80;;;;;;;10.86;100.00;154149.41;5001902;28;20214;-93
2024/04/04 05:34:57;;;;;;;5.20;1.53;;;;;;;10.87;100.00;154152.03;5013056;28;20478;-92
2024/04/04 05:37:23;;;;;;;2.00;1.00;;;;;;;10.90;100.00;154158.50;5030793;28;20206;-92
2024/04/04 05:39:49;;;;;;;1.40;0.80;;;;;;;10.90;100.00;154159.78;5026874;28;20945;-92
2024/04/04 05:42:16;;;;;;;1.63;1.10;;;;;;;10.93;100.00;154167.53;5026882;28;20634;-93
2024/04/04 05:44:43;;;;;;;0.93;0.70;;;;;;;10.97;100.00;154176.59;5010573;28;20570;-93
2024/04/04 05:47:08;;;;;;;1.90;0.90;;;;;;;11.01;100.00;154188.25;5027556;28;20464;-92
2024/04/04 05:49:35;;;;;;;1.80;0.83;;;;;;;11.08;100.00;154205.13;5010193;28;20478;-91
2024/04/04 05:52:00;;;;;;;2.30;1.30;;;;;;;11.17;100.00;154227.16;5029485;28;20260;-93
2024/04/04 05:54:27;;;;;;;2.63;1.27;;;;;;;11.25;100.00;154247.88;5028741;28;20444;-92
2024/04/04 05:56:53;;;;;;;1.37;0.93;;;;;;;11.30;100.00;154260.81;5008520;28;20206;-91
2024/04/04 05:59:21;;;;;;;2.27;0.80;;;;;;;11.36;100.00;154276.34;5027614;28;20452;-92
2024/04/04 06:01:46;;;;;;;2.13;0.90;;;;;;;11.45;100.00;154299.69;5027566;28;20209;-91
2024/04/04 06:04:13;;;;;;;4.80;1.10;;;;;;;11.66;100.00;154354.09;5028298;28;20479;-92
2024/04/04 06:06:41;;;;;;;5.50;1.80;;;;;;;11.95;100.00;154429.31;5028127;28;20613;-91
2024/04/04 06:09:09;;;;;;;3.30;1.20;;;;;;;12.32;100.00;154522.66;5027516;28;20459;-90
2024/04/04 06:11:34;;;;;;;1.40;0.77;;;;;;;12.46;100.00;154558.97;5027379;28;20463;-90
2024/04/04 06:14:01;;;;;;;1.93;1.03;;;;;;;12.76;100.00;154638.06;5028093;28;20446;-91
2024/04/04 06:16:28;;;;;;;1.50;0.73;;;;;;;13.01;100.00;154701.63;5026741;28;20256;-91
2024/04/04 06:18:54;;;;;;;3.90;1.37;;;;;;;13.09;100.00;154722.44;5026761;28;20514;-89
2024/04/04 06:21:20;;;;;;;2.50;1.20;;;;;;;13.08;100.00;154718.56;5022637;28;20795;-90
2024/04/04 06:23:46;;;;;;;1.43;0.90;;;;;;;12.98;100.00;154693.84;5027541;28;20621;-91
2024/04/04 06:26:12;;;;;;;2.00;0.90;;;;;;;12.89;100.00;154670.53;5026966;28;20333;-90
2024/04/04 06:28:38;;;;;;;3.50;1.07;;;;;;;12.97;100.00;154691.28;5027715;28;20549;-92
2024/04/04 06:31:04;;;;;;;1.93;1.10;;;;;;;13.22;100.00;154756.19;5027264;28;20736;-91
2024/04/04 06:33:32;;;;;;;2.60;1.10;;;;;;;13.45;100.00;154814.53;5027163;28;20447;-91
2024/04/04 06:35:57;;;;;;;2.17;1.17;;;;;;;13.62;100.00;154857.38;5026693;28;20223;-89
2024/04/04 06:38:24;;;;;;;5.00;0.90;;;;;;;13.86;99.32;154921.00;5031283;28;20524;-89
2024/04/04 06:40:49;;;;;;;2.53;0.83;;;;;;;14.14;97.51;154992.38;5025574;28;20739;-91
2024/04/04 06:43:16;;;;;;;1.97;0.80;;;;;;;14.30;96.33;155033.94;5029854;28;20471;-90
2024/04/04 06:45:41;;;;;;;2.60;1.30;;;;;;;14.40;95.45;155059.94;5010092;28;20199;-91
2024/04/04 06:48:08;;;;;;;3.97;1.10;;;;;;;14.43;94.73;155066.44;5028012;28;20978;-91
2024/04/04 06:50:35;;;;;;;3.17;1.07;;;;;;;14.50;94.18;155085.97;5028964;28;20221;-91
2024/04/04 06:53:03;;;;;;;2.00;1.00;;;;;;;14.70;92.92;155136.59;5028977;28;20450;-90
2024/04/04 06:55:28;;;;;;;2.00;0.80;;;;;;;14.89;91.62;155185.97;5029015;28;20460;-90
2024/04/04 06:57:55;;;;;;;5.03;1.70;;;;;;;14.95;90.42;155200.25;5029613;28;20452;-89
2024/04/04 07:00:20;;;;;;;2.53;1.07;;;;;;;15.06;89.89;155228.84;5010223;28;20209;-90
2024/04/04 07:02:47;;;;;;;1.70;1.00;;;;;;;15.25;88.58;155278.19;5011763;28;20444;-88
2024/04/04 07:05:12;;;;;;;2.27;1.20;;;;;;;15.39;86.21;155314.59;5028330;28;20598;-89
2024/04/04 07:07:40;;;;;;;2.37;1.30;;;;;;;15.35;85.66;155304.22;5029362;28;20460;-89
2024/04/04 07:10:07;;;;;;;4.07;1.20;;;;;;;15.33;86.09;155298.97;5029289;28;20206;-89
2024/04/04 07:12:33;;;;;;;4.23;1.00;;;;;;;15.52;86.59;155348.44;5009478;28;20977;-88
2024/04/04 07:14:59;;;;;;;2.70;0.80;;;;;;;15.77;86.40;155412.13;5028961;28;20452;-88
2024/04/04 07:17:29;;;;;;;4.10;1.97;;;;;;;15.87;84.65;155436.81;5028811;28;20775;-89
2024/04/04 07:19:54;;;;;;;3.43;1.43;;;;;;;15.87;85.15;155438.13;5009844;28;20211;-89
2024/04/04 07:22:21;;;;;;;7.07;1.30;;;;;;;15.75;83.79;155406.97;5026743;28;20471;-89
2024/04/04 07:24:48;;;;;;;3.80;1.07;;;;;;;15.63;82.48;155377.03;5029001;28;20308;-90
2024/04/04 07:27:15;;;;;;;2.07;0.90;;;;;;;15.52;82.45;155348.44;5029441;28;20543;-90
2024/04/04 07:29:42;;;;;;;3.90;1.30;;;;;;;15.39;81.95;155313.28;5020827;28;20489;-90
2024/04/04 07:32:08;;;;;;;5.53;1.43;;;;;;;15.32;83.18;155295.09;5000801;28;20812;-90
2024/04/04 07:34:34;;;;;;;2.63;1.30;;;;;;;15.18;82.84;155260.00;5000423;28;20544;-91
2024/04/04 07:37:01;;;;;;;3.13;1.17;;;;;;;15.09;82.67;155237.91;4998845;28;20532;-91
2024/04/04 07:39:27;;;;;;;1.90;1.17;;;;;;;14.98;84.11;155208.06;4996973;28;20789;-91
2024/04/04 07:41:55;;;;;;;4.00;1.30;;;;;;;14.87;84.67;155180.78;4999211;28;20527;-91
2024/04/04 07:44:20;;;;;;;3.20;1.47;;;;;;;14.75;84.99;155148.25;5002964;28;20228;-91
2024/04/04 07:46:47;;;;;;;3.57;0.80;;;;;;;14.62;85.60;155117.09;4995841;28;20464;-91
2024/04/04 07:49:12;;;;;;;3.03;1.30;;;;;;;14.54;86.50;155096.31;4999024;28;20228;-92
2024/04/04 07:51:39;;;;;;;3.13;1.30;;;;;;;14.47;88.31;155078.16;4995688;28;20551;-92
2024/04/04 07:54:05;;;;;;;4.50;1.17;;;;;;;14.39;89.20;155056.06;4995331;28;20675;-92
2024/04/04 07:56:31;;;;;;;2.80;1.03;;;;;;;14.33;90.13;155041.78;5000848;28;20540;-90
2024/04/04 07:59:00;;;;;;;4.20;1.17;;;;;;;14.27;89.92;155026.13;4999784;28;20241;-92
2024/04/04 08:01:27;;;;;;;4.57;1.50;;;;;;;14.23;91.20;155014.47;4996777;28;20449;-90
2024/04/04 08:03:53;;;;;;;2.70;1.37;;;;;;;14.23;90.90;155014.47;4995610;28;20477;-93
2024/04/04 08:06:20;;;;;;;4.40;1.37;;;;;;;14.20;91.04;155006.66;4998656;28;20515;-91
2024/04/04 08:08:45;;;;;;;2.23;1.53;;;;;;;14.16;91.37;154997.59;4997773;28;21360;-89
2024/04/04 08:11:14;;;;;;;4.10;1.10;;;;;;;14.15;91.72;154995.00;4993820;28;20472;-91
2024/04/04 08:13:39;;;;;;;5.20;1.30;;;;;;;14.14;91.17;154992.38;4993644;28;20224;-90
2024/04/04 08:16:08;;;;;;;5.33;0.90;;;;;;;14.15;90.59;154993.69;5003559;28;20469;-88
2024/04/04 08:18:33;;;;;;;2.50;1.10;;;;;;;14.17;91.33;155000.19;5019084;28;20215;-90
2024/04/04 08:21:00;;;;;;;3.50;1.13;;;;;;;14.10;91.29;154982.03;4997266;28;21065;-92
2024/04/04 08:23:26;;;;;;;7.23;1.47;;;;;;;14.07;91.55;154974.22;5004084;28;20274;-90
2024/04/04 08:25:54;;;;;;;4.67;1.97;;;;;;;14.07;92.10;154974.22;4997303;28;20452;-92
2024/04/04 08:28:19;;;;;;;3.60;1.27;;;;;;;14.01;93.18;154958.63;5006648;28;20215;-91
2024/04/04 08:30:46;;;;;;;2.57;1.20;;;;;;;13.98;94.19;154950.81;5014129;28;20471;-91
2024/04/04 08:33:13;;;;;;;2.40;1.50;;;;;;;13.94;93.87;154941.78;5028217;28;20269;-91
2024/04/04 08:35:39;;;;;;;3.67;1.40;;;;;;;13.89;93.34;154927.50;5011936;28;20491;-90
2024/04/04 08:38:05;;;;;;;1.93;1.00;;;;;;;13.88;93.37;154926.19;5029759;28;20451;-92
2024/04/04 08:40:32;;;;;;;1.80;1.10;;;;;;;13.85;92.85;154918.38;5028681;28;20459;-90
2024/04/04 08:42:57;;;;;;;2.10;1.10;;;;;;;13.83;93.13;154913.22;5029551;28;20206;-91
2024/04/04 08:45:32;;;;;;;2.30;1.10;;;;;;;13.81;94.24;154906.72;5026703;28;20483;-90
2024/04/04 08:47:58;;;;;;;2.57;1.10;;;;;;;13.78;93.78;154900.22;5026663;28;20570;-91
2024/04/04 08:50:26;;;;;;;2.10;1.03;;;;;;;13.76;92.91;154893.75;5027628;28;20550;-90
2024/04/04 08:52:52;;;;;;;3.07;1.17;;;;;;;13.75;94.52;154892.44;5028781;28;20455;-90
2024/04/04 08:55:18;;;;;;;5.57;1.80;;;;;;;13.73;94.79;154885.94;5028944;28;20502;-91
2024/04/04 08:57:44;;;;;;;3.33;1.20;;;;;;;13.72;94.55;154883.34;5028497;28;20238;-91
2024/04/04 09:00:12;;;;;;;2.50;1.10;;;;;;;13.72;95.20;154884.63;5028153;28;20486;-91
2024/04/04 09:02:37;;;;;;;4.63;1.20;;;;;;;13.76;95.35;154893.75;5028481;28;20302;-91
2024/04/04 09:05:04;;;;;;;2.57;1.13;;;;;;;13.80;96.43;154904.09;5025290;28;21048;-90
2024/04/04 09:07:34;;;;;;;3.90;1.90;;;;;;;13.76;94.54;154893.75;5023638;28;20203;-91
2024/04/04 09:10:00;;;;;;;5.50;1.00;;;;;;;13.80;94.63;154904.09;5028154;28;20538;-91
2024/04/04 09:12:26;;;;;;;4.40;1.10;;;;;;;13.84;95.49;154914.50;5026760;28;20501;-90
2024/04/04 09:14:59;;;;;;;1.77;1.30;;;;;;;13.83;95.63;154911.91;5027444;28;20914;-90
2024/04/04 09:17:26;;;;;;;2.53;0.80;;;;;;;13.87;95.76;154922.31;5027124;28;20276;-90
2024/04/04 09:19:54;;;;;;;4.00;1.30;;;;;;;13.88;93.98;154926.19;5027644;28;20459;-90
2024/04/04 09:22:20;;;;;;;3.20;1.83;;;;;;;13.94;93.27;154940.47;5008966;28;20454;-90
2024/04/04 09:24:49;;;;;;;4.10;0.90;;;;;;;13.98;93.97;154952.13;5027075;28;20537;-91
2024/04/04 09:27:17;;;;;;;2.40;1.30;;;;;;;14.01;94.07;154958.63;5027699;28;20826;-90
2024/04/04 09:29:45;;;;;;;4.57;1.70;;;;;;;14.09;93.92;154978.09;5027213;28;20893;-90
2024/04/04 09:32:12;;;;;;;3.40;1.37;;;;;;;14.13;93.69;154989.81;5027305;28;20513;-90
2024/04/04 09:34:39;;;;;;;3.10;1.37;;;;;;;14.18;93.27;155001.50;5025348;28;20459;-90
2024/04/04 09:37:05;;;;;;;3.13;1.20;;;;;;;14.28;93.72;155028.75;5026510;28;20455;-90
2024/04/04 09:39:32;;;;;;;6.10;1.83;;;;;;;14.33;92.24;155041.78;5025759;28;20455;-90
2024/04/04 09:41:59;;;;;;;2.30;1.27;;;;;;;14.42;92.51;155065.19;5009223;28;20206;-91
2024/04/04 09:44:26;;;;;;;3.40;1.13;;;;;;;14.43;92.95;155067.75;5026823;28;20480;-90
2024/04/04 09:46:52;;;;;;;5.03;1.30;;;;;;;14.44;93.38;155069.06;5026268;28;21067;-90
2024/04/04 09:49:19;;;;;;;2.63;1.33;;;;;;;14.49;92.60;155082.03;5007749;28;20499;-90
2024/04/04 09:51:46;;;;;;;3.50;1.20;;;;;;;14.53;92.98;155093.72;5026612;28;20523;-90
2024/04/04 09:54:13;;;;;;;3.17;1.50;;;;;;;14.58;93.66;155105.44;5026719;28;20456;-90
2024/04/04 09:56:40;;;;;;;5.57;2.00;;;;;;;14.57;93.73;155104.13;5026876;28;20495;-90
2024/04/04 09:59:08;;;;;;;6.10;1.70;;;;;;;14.62;93.34;155117.09;5031461;28;20455;-90
2024/04/04 10:01:34;;;;;;;3.23;1.50;;;;;;;14.64;92.71;155122.28;5024633;28;20839;-91
2024/04/04 10:04:02;;;;;;;1.67;1.00;;;;;;;14.69;93.10;155132.72;5027129;28;20480;-91
2024/04/04 10:06:29;;;;;;;3.37;1.10;;;;;;;14.66;93.33;155126.22;5027331;28;20451;-91
2024/04/04 10:08:58;;;;;;;2.10;1.10;;;;;;;14.68;93.52;155130.09;5012369;28;21025;-92
2024/04/04 10:11:27;;;;;;;3.00;1.10;;;;;;;14.64;94.90;155121.00;5028729;28;20812;-93
2024/04/04 10:13:55;;;;;;;3.10;1.10;;;;;;;14.55;94.85;155098.94;5030579;28;20444;-93
2024/04/04 10:16:38;;;;;;;3.70;1.43;;;;;;;14.52;96.08;155091.16;5033604;28;20813;-93
2024/04/04 10:19:10;;;;;;;4.30;1.03;;;;;;;14.45;96.23;155071.69;5014176;28;20461;-94
2024/04/04 10:21:36;;;;;;;2.60;1.10;;;;;;;14.43;97.30;155066.44;5020256;28;20466;-93
2024/04/04 10:24:03;;;;;;;4.60;0.93;;;;;;;14.40;97.16;155058.69;5035385;28;20483;-94
2024/04/04 10:26:28;;;;;;;2.13;1.40;;;;;;;14.41;97.45;155062.56;5033949;28;20207;-94
2024/04/04 10:28:55;;;;;;;1.63;1.23;;;;;;;14.41;98.48;155061.25;5017620;28;20891;-94
2024/04/04 10:31:21;;;;;;;2.60;1.20;;;;;;;14.39;98.87;155056.06;5038061;28;20230;-94
2024/04/04 10:33:49;;;;;;;2.53;1.07;;;;;;;14.38;99.15;155054.75;5038918;28;20447;-93
2024/04/04 10:36:14;;;;;;;2.10;1.30;;;;;;;14.38;100.00;155054.75;5038280;28;20198;-94
2024/04/04 10:38:41;;;;;;;5.10;1.20;;;;;;;14.36;100.00;155049.59;5039984;28;20839;-94
2024/04/04 10:41:06;;;;;;;1.57;1.07;;;;;;;14.36;100.00;155049.59;5026956;28;20206;-94
2024/04/04 10:43:39;;;;;;;1.97;1.40;;;;;;;14.36;100.00;155049.59;5038305;28;20470;-95
2024/04/04 10:46:05;;;;;;;1.50;0.97;;;;;;;14.34;100.00;155044.41;5038979;28;20199;-93
2024/04/04 10:48:32;;;;;;;1.57;1.03;;;;;;;14.36;100.00;155049.59;5039308;28;20451;-93
2024/04/04 10:50:59;;;;;;;2.90;1.37;;;;;;;14.34;100.00;155044.41;5017480;28;20293;-93
2024/04/04 10:53:26;;;;;;;5.57;1.40;;;;;;;14.38;100.00;155054.75;5034614;28;20516;-93
2024/04/04 10:55:54;;;;;;;3.80;1.23;;;;;;;14.40;100.00;155059.94;5035240;28;20786;-91
2024/04/04 10:58:20;;;;;;;3.80;1.57;;;;;;;14.45;100.00;155072.97;5017193;28;20455;-94
2024/04/04 11:00:52;;;;;;;2.93;1.40;;;;;;;14.48;100.00;155079.47;5035287;28;20444;-93
2024/04/04 11:03:20;;;;;;;4.10;1.90;;;;;;;14.47;100.00;155078.16;5017516;28;20455;-94
2024/04/04 11:05:46;;;;;;;3.40;1.20;;;;;;;14.46;100.00;155075.53;5035762;28;20533;-93
2024/04/04 11:08:14;;;;;;;2.00;1.10;;;;;;;14.48;100.00;155080.72;5016089;28;20819;-93
2024/04/04 11:10:43;;;;;;;3.63;1.00;;;;;;;14.55;100.00;155097.63;5034130;28;20211;-93
2024/04/04 11:13:10;;;;;;;3.20;1.30;;;;;;;14.67;100.00;155128.78;5034458;28;20515;-93
2024/04/04 11:15:36;;;;;;;5.37;1.40;;;;;;;14.74;100.00;155147.00;5033610;28;20455;-92
2024/04/04 11:18:04;;;;;;;2.10;1.10;;;;;;;14.74;100.00;155147.00;5027250;28;20542;-91